»·PEaware :: WAT380 KABQ-KCOS

WAT380 :: KABQ-KCOS

FLIGHT INFORMATION

Flight Status: Arrived
Operator:
Walker Air Transport
More flights by this operator :: More flights under this callsign
Pilot: Spencer M. (27733)
Aircraft: ECLIPSE 500
(EA50)
More flights by this aircraft type
Origin: KABQ Albuquerque Intl Sunport
United States
Destination: KCOS City Of Colorado Springs Mun
United States
More flights between these airports :: More routes between these airports
Route: GRZZZ3 FTI V611 BRK
File this flight plan on PilotEdge
Remarks:
Altitude:
(Current/Filed)
24,000ft
Speed:
(Current/Filed)
320kts
Departed: 16-Oct-20 09:05 AM
Arrived: 16-Oct-20 10:16 AM
Distance/Time
Traveled:
244nm/1:11
Distance/Time
To Go:
Arrived

Flight Plot

Page will automatically refresh every two minutes.

Flight plan parsing failed; only flown route is shown


Map Options




Map Legend


Flown Route
Filed Route
Departure Airport
Arrival Airport
Navaid (VOR, NDB)
Fix

Horizontal Profiles

Position Reports

Time Latitude Longitude Heading Altitude Ground
Speed
16-Oct-20 08:47 35.037718 -106.620767 326 5357ft 0kts
16-Oct-20 08:48 35.037718 -106.620767 326 5357ft 0kts
16-Oct-20 08:49 35.037718 -106.620767 326 5357ft 0kts
16-Oct-20 08:50 35.037718 -106.620767 326 5357ft 0kts
16-Oct-20 08:51 35.037718 -106.620767 326 5357ft 0kts
16-Oct-20 08:52 35.037718 -106.620767 326 5357ft 0kts
16-Oct-20 08:53 35.037718 -106.620767 326 5357ft 0kts
16-Oct-20 08:54 35.037718 -106.620767 326 5357ft 0kts
16-Oct-20 08:55 35.037718 -106.620767 326 5357ft 0kts
16-Oct-20 08:56 35.037718 -106.620767 326 5357ft 0kts
16-Oct-20 08:57 35.037718 -106.620767 326 5357ft 0kts
16-Oct-20 08:58 35.038062 -106.620841 355 5357ft 5kts
16-Oct-20 08:59 35.039711 -106.620653 291 5357ft 6kts
16-Oct-20 09:00 35.041765 -106.621394 358 5357ft 11kts
16-Oct-20 09:01 35.043116 -106.621412 0 5357ft 0kts
16-Oct-20 09:03 35.043116 -106.621412 0 5357ft 0kts
16-Oct-20 09:04 35.043125 -106.621412 0 5357ft 1kts
16-Oct-20 09:05 35.044317 -106.613687 90 5357ft 86kts
16-Oct-20 09:06 35.044107 -106.564369 87 5801ft 197kts
16-Oct-20 09:07 35.093372 -106.556464 338 7577ft 245kts
16-Oct-20 09:08 35.161244 -106.585111 342 9183ft 270kts
16-Oct-20 09:09 35.235952 -106.593752 6 10785ft 277kts
16-Oct-20 09:10 35.303370 -106.558562 48 12383ft 277kts
16-Oct-20 09:11 35.353113 -106.487286 53 13982ft 274kts
16-Oct-20 09:12 35.375197 -106.399561 74 15590ft 268kts
16-Oct-20 09:13 35.394995 -106.312790 74 17190ft 260kts
16-Oct-20 09:14 35.414140 -106.228806 74 18699ft 254kts
16-Oct-20 09:15 35.432911 -106.146232 73 20088ft 249kts
16-Oct-20 09:16 35.451186 -106.065576 73 21477ft 241kts
16-Oct-20 09:17 35.468653 -105.988216 72 22863ft 229kts
16-Oct-20 09:18 35.485084 -105.915253 71 24015ft 223kts
16-Oct-20 09:19 35.503636 -105.832885 72 24005ft 275kts
16-Oct-20 09:20 35.525306 -105.735977 72 24007ft 310kts
16-Oct-20 09:20 35.544862 -105.648142 72 24010ft 330kts
16-Oct-20 09:22 35.573813 -105.517519 72 24012ft 347kts
16-Oct-20 09:22 35.595142 -105.420828 73 24012ft 355kts
16-Oct-20 09:24 35.625372 -105.283118 73 24007ft 360kts
16-Oct-20 09:24 35.647089 -105.183662 73 24007ft 362kts
16-Oct-20 09:25 35.717212 -105.116857 10 24008ft 335kts
16-Oct-20 09:26 35.806873 -105.088783 9 24008ft 332kts
16-Oct-20 09:27 35.896083 -105.060754 9 24008ft 330kts
16-Oct-20 09:28 35.984863 -105.032790 9 24008ft 329kts
16-Oct-20 09:29 36.073009 -105.004961 8 24011ft 328kts
16-Oct-20 09:30 36.161208 -104.977050 8 24018ft 327kts
16-Oct-20 09:31 36.249116 -104.949167 8 24019ft 326kts
16-Oct-20 09:32 36.336600 -104.921354 8 24019ft 325kts
16-Oct-20 09:33 36.424046 -104.893488 7 24019ft 324kts
16-Oct-20 09:34 36.511398 -104.867133 4 24015ft 321kts
16-Oct-20 09:35 36.599337 -104.846093 4 23981ft 322kts
16-Oct-20 09:36 36.686910 -104.825037 4 24000ft 321kts
16-Oct-20 09:37 36.774287 -104.803974 4 24000ft 321kts
16-Oct-20 09:38 36.861869 -104.782810 4 24000ft 321kts
16-Oct-20 09:39 36.949341 -104.761622 4 24000ft 321kts
16-Oct-20 09:40 37.036533 -104.740458 4 23979ft 320kts
16-Oct-20 09:41 37.123756 -104.719241 4 23922ft 317kts
16-Oct-20 09:42 37.209806 -104.698241 4 23898ft 315kts
16-Oct-20 09:43 37.294838 -104.677436 4 24009ft 309kts
16-Oct-20 09:44 37.379314 -104.659292 352 23995ft 303kts
16-Oct-20 09:45 37.465502 -104.659448 354 23435ft 318kts
16-Oct-20 09:46 37.555871 -104.658178 355 22655ft 331kts
16-Oct-20 09:47 37.648466 -104.656592 355 21738ft 332kts
16-Oct-20 09:48 37.740353 -104.654984 355 20744ft 330kts
16-Oct-20 09:49 37.830596 -104.653390 356 19747ft 321kts
16-Oct-20 09:50 37.918846 -104.651836 356 18745ft 315kts
16-Oct-20 09:51 38.005922 -104.650303 356 17740ft 312kts
16-Oct-20 09:52 38.091995 -104.648774 356 16732ft 306kts
16-Oct-20 09:53 38.176450 -104.647281 356 15750ft 303kts
16-Oct-20 09:54 38.260132 -104.645780 356 15033ft 294kts
16-Oct-20 09:55 38.339174 -104.644349 356 15029ft 277kts
16-Oct-20 09:56 38.416332 -104.642985 356 15031ft 277kts
16-Oct-20 09:57 38.493187 -104.639073 15 15039ft 284kts
16-Oct-20 09:58 38.561068 -104.584478 22 14099ft 284kts
16-Oct-20 09:59 38.632218 -104.543640 18 13106ft 279kts
16-Oct-20 10:00 38.703575 -104.506633 17 12123ft 277kts
16-Oct-20 10:01 38.776205 -104.469772 17 11228ft 284kts
16-Oct-20 10:02 38.848282 -104.433300 18 10335ft 276kts
16-Oct-20 10:03 38.919220 -104.407848 335 10035ft 253kts
16-Oct-20 10:04 38.970376 -104.462439 315 10037ft 231kts
16-Oct-20 10:05 39.014779 -104.513360 314 10036ft 200kts
16-Oct-20 10:06 39.052801 -104.560751 286 9984ft 185kts
16-Oct-20 10:07 39.052650 -104.627702 267 9550ft 188kts
16-Oct-20 10:08 39.051369 -104.692127 268 9536ft 173kts
16-Oct-20 10:09 39.012754 -104.715542 183 8808ft 184kts
16-Oct-20 10:10 38.969576 -104.715639 184 8733ft 137kts
16-Oct-20 10:11 38.929746 -104.715728 182 8189ft 145kts
16-Oct-20 10:12 38.891366 -104.715563 184 7421ft 134kts
16-Oct-20 10:13 38.854506 -104.715990 181 6863ft 131kts
16-Oct-20 10:14 38.821921 -104.715922 181 6202ft 103kts
16-Oct-20 10:15 38.806237 -104.716769 261 6190ft 12kts
16-Oct-20 10:16 38.807812 -104.717335 0 6190ft 11kts
16-Oct-20 10:17 38.811911 -104.717335 359 6190ft 12kts
16-Oct-20 10:18 38.812480 -104.720364 228 6190ft 7kts

Navigation Log

Ident Type
Flight plan parsing failed, navigation log unavailable